Time;durP1;ratioP1;P1;durP2;ratioP2;P2;SDS_P1;SDS_P2;PMS_P1;PMS_P2;Temp;Humidity;BMP_temperature;BMP_pressure;BME280_temperature;BME280_humidity;BME280_pressure;Samples;Min_cycle;Max_cycle;Signal;HPM_P1;HPM_P2
2023/08/04 00:01:21;;;;;;;13.97;5.50;;;14.90;99.90;;;;;;5096385;28;20207;-78
2023/08/04 00:03:47;;;;;;;12.90;5.63;;;14.90;99.90;;;;;;5096474;28;20208;-78
2023/08/04 00:06:12;;;;;;;10.17;5.70;;;14.90;99.90;;;;;;5096559;28;20179;-77
2023/08/04 00:08:38;;;;;;;9.60;5.63;;;14.90;99.90;;;;;;5096294;28;20650;-78
2023/08/04 00:11:04;;;;;;;8.93;5.30;;;14.80;99.90;;;;;;5096503;28;20262;-77
2023/08/04 00:13:30;;;;;;;11.47;5.77;;;14.90;99.90;;;;;;5096364;28;20208;-78
2023/08/04 00:16:07;;;;;;;13.63;5.83;;;14.90;99.90;;;;;;5096030;28;20216;-77
2023/08/04 00:18:33;;;;;;;17.50;5.90;;;14.90;99.90;;;;;;5096402;28;20168;-78
2023/08/04 00:20:58;;;;;;;11.20;5.30;;;14.90;99.90;;;;;;5096328;28;20162;-77
2023/08/04 00:23:24;;;;;;;12.53;6.23;;;14.90;99.90;;;;;;5095962;28;20234;-77
2023/08/04 00:25:49;;;;;;;12.90;6.10;;;14.80;99.90;;;;;;5096418;28;20703;-77
2023/08/04 00:28:15;;;;;;;11.07;6.03;;;14.90;99.90;;;;;;5094888;28;20176;-78
2023/08/04 00:30:40;;;;;;;15.17;6.23;;;14.80;99.90;;;;;;5095948;28;20242;-77
2023/08/04 00:33:08;;;;;;;12.53;6.60;;;14.80;99.90;;;;;;5096063;28;20516;-77
2023/08/04 00:35:33;;;;;;;19.23;6.57;;;14.80;99.90;;;;;;5095966;28;20221;-77
2023/08/04 00:37:59;;;;;;;14.47;6.07;;;14.70;99.90;;;;;;5095998;28;20184;-78
2023/08/04 00:40:25;;;;;;;7.53;5.87;;;14.70;99.90;;;;;;5095984;28;20687;-77
2023/08/04 00:42:50;;;;;;;13.60;6.57;;;14.70;99.90;;;;;;5094767;28;20298;-77
2023/08/04 00:45:16;;;;;;;12.93;6.10;;;14.60;99.90;;;;;;5095695;28;20186;-76
2023/08/04 00:47:42;;;;;;;14.70;6.30;;;14.60;99.90;;;;;;5096028;28;20180;-77
2023/08/04 00:50:09;;;;;;;17.03;6.77;;;14.60;99.90;;;;;;5095802;28;20168;-77
2023/08/04 00:52:37;;;;;;;16.83;6.80;;;14.60;99.90;;;;;;5095673;28;20666;-77
2023/08/04 00:55:03;;;;;;;12.73;6.83;;;14.60;99.90;;;;;;5095417;28;20275;-77
2023/08/04 00:57:29;;;;;;;14.87;6.80;;;14.60;99.90;;;;;;5095334;28;20630;-77
2023/08/04 00:59:55;;;;;;;17.70;7.23;;;14.60;99.90;;;;;;5095614;28;20176;-77
2023/08/04 01:02:21;;;;;;;14.07;6.60;;;14.50;99.90;;;;;;5095355;28;20253;-77
2023/08/04 01:04:47;;;;;;;13.63;6.60;;;14.50;99.90;;;;;;5095371;28;20168;-77
2023/08/04 01:07:24;;;;;;;20.80;7.23;;;14.50;99.90;;;;;;5095358;28;20176;-77
2023/08/04 01:10:15;;;;;;;13.77;7.43;;;14.60;99.90;;;;;;5095381;28;20194;-77
2023/08/04 01:12:51;;;;;;;13.77;7.23;;;14.60;99.90;;;;;;5094981;28;20175;-77
2023/08/04 01:15:18;;;;;;;13.97;7.73;;;14.60;99.90;;;;;;5095083;28;20163;-76
2023/08/04 01:17:44;;;;;;;17.70;7.33;;;14.60;99.90;;;;;;5095408;28;20201;-77
2023/08/04 01:20:10;;;;;;;16.43;7.47;;;14.50;99.90;;;;;;5095170;28;20168;-75
2023/08/04 01:22:35;;;;;;;17.27;7.93;;;14.60;99.90;;;;;;5094976;28;20231;-76
2023/08/04 01:25:02;;;;;;;19.30;7.23;;;14.60;99.90;;;;;;5094904;28;20202;-77
2023/08/04 01:27:32;;;;;;;16.50;7.70;;;14.50;99.90;;;;;;5094504;28;20229;-76
2023/08/04 01:30:02;;;;;;;15.93;7.60;;;14.50;99.90;;;;;;5094589;28;20171;-77
2023/08/04 01:32:28;;;;;;;13.33;7.40;;;14.50;99.90;;;;;;5094818;28;20188;-78
2023/08/04 01:34:54;;;;;;;13.90;7.47;;;14.50;99.90;;;;;;5094441;28;20208;-77
2023/08/04 01:37:20;;;;;;;17.57;8.13;;;14.40;99.90;;;;;;5095051;28;20168;-77
2023/08/04 01:39:45;;;;;;;15.63;7.27;;;14.50;99.90;;;;;;5095002;28;20582;-76
2023/08/04 01:42:11;;;;;;;13.83;7.67;;;14.50;99.90;;;;;;5094224;28;20707;-76
2023/08/04 01:44:37;;;;;;;13.70;7.37;;;14.50;99.90;;;;;;5094510;28;20179;-77
2023/08/04 01:47:03;;;;;;;19.63;8.30;;;14.50;99.90;;;;;;5094798;28;20519;-76
2023/08/04 01:49:28;;;;;;;15.73;7.53;;;14.50;99.90;;;;;;5094638;28;20168;-76
2023/08/04 01:51:54;;;;;;;14.60;7.63;;;14.60;99.90;;;;;;5094651;28;20183;-76
2023/08/04 01:54:20;;;;;;;16.57;8.03;;;14.60;99.90;;;;;;5094097;28;20179;-76
2023/08/04 01:56:45;;;;;;;16.77;7.80;;;14.60;99.90;;;;;;5094037;28;20168;-77
2023/08/04 01:59:11;;;;;;;16.20;7.13;;;14.60;99.90;;;;;;5094319;28;20182;-76
2023/08/04 02:01:37;;;;;;;12.17;6.83;;;14.70;99.90;;;;;;5094464;28;20614;-77
2023/08/04 02:04:02;;;;;;;12.07;6.97;;;14.70;99.90;;;;;;5094305;28;20211;-76
2023/08/04 02:06:28;;;;;;;16.83;6.67;;;14.70;99.90;;;;;;5094206;28;20635;-77
2023/08/04 02:08:53;;;;;;;11.07;6.53;;;14.70;99.90;;;;;;5094207;28;20172;-76
2023/08/04 02:11:19;;;;;;;12.30;6.80;;;14.80;99.90;;;;;;5094004;28;20182;-76
2023/08/04 02:13:45;;;;;;;17.47;6.97;;;14.90;99.90;;;;;;5094042;28;20218;-76
2023/08/04 02:16:10;;;;;;;14.70;7.17;;;15.00;99.90;;;;;;5092820;28;20575;-77
2023/08/04 02:18:36;;;;;;;12.13;7.00;;;15.00;99.90;;;;;;5092824;28;20175;-77
2023/08/04 02:21:02;;;;;;;11.63;6.30;;;15.10;99.90;;;;;;5093967;28;20176;-76
2023/08/04 02:23:27;;;;;;;13.10;6.80;;;15.20;99.90;;;;;;5093875;28;20203;-76
2023/08/04 02:25:53;;;;;;;14.70;6.10;;;15.20;99.90;;;;;;5093584;28;20168;-76
2023/08/04 02:28:18;;;;;;;13.50;6.60;;;15.30;99.90;;;;;;5093804;28;20183;-77
2023/08/04 02:30:44;;;;;;;11.13;6.50;;;15.30;99.90;;;;;;5093825;28;20168;-76
2023/08/04 02:33:10;;;;;;;10.53;6.60;;;15.30;99.90;;;;;;5093837;28;20654;-76
2023/08/04 02:35:35;;;;;;;10.17;6.00;;;15.30;99.90;;;;;;5093903;28;20205;-76
2023/08/04 02:38:01;;;;;;;13.43;6.87;;;15.30;99.90;;;;;;5093718;28;20176;-78
2023/08/04 02:40:26;;;;;;;11.87;6.27;;;15.40;99.90;;;;;;5092816;28;20277;-75
2023/08/04 02:42:52;;;;;;;12.80;6.40;;;15.50;99.90;;;;;;5093499;28;20207;-76
2023/08/04 02:45:18;;;;;;;17.10;6.70;;;15.40;99.90;;;;;;5092338;28;20175;-76
2023/08/04 02:47:43;;;;;;;17.17;6.73;;;15.40;99.90;;;;;;5093914;28;20623;-76
2023/08/04 02:50:09;;;;;;;12.63;6.90;;;15.40;99.90;;;;;;5093723;28;20164;-76
2023/08/04 02:52:34;;;;;;;18.40;7.30;;;15.40;99.90;;;;;;5093267;28;20639;-76
2023/08/04 02:55:00;;;;;;;14.47;6.93;;;15.50;99.90;;;;;;5093105;28;20196;-77
2023/08/04 02:57:31;;;;;;;12.03;6.60;;;15.60;99.90;;;;;;5093253;28;20172;-76
2023/08/04 02:59:57;;;;;;;8.53;5.77;;;15.50;99.90;;;;;;5093707;28;20166;-76
2023/08/04 03:02:24;;;;;;;11.30;6.60;;;15.60;99.90;;;;;;5093533;28;20241;-76
2023/08/04 03:04:50;;;;;;;11.30;6.93;;;15.70;99.90;;;;;;5093089;28;20175;-76
2023/08/04 03:07:15;;;;;;;15.50;6.97;;;15.70;99.90;;;;;;5093090;28;20627;-76
2023/08/04 03:09:41;;;;;;;15.37;6.47;;;15.70;99.90;;;;;;5093020;28;20183;-77
2023/08/04 03:12:07;;;;;;;13.67;6.77;;;15.60;99.90;;;;;;5093257;28;20224;-76
2023/08/04 03:14:33;;;;;;;11.37;6.87;;;15.60;99.90;;;;;;5093265;28;20175;-76
2023/08/04 03:16:58;;;;;;;13.10;6.30;;;15.60;99.90;;;;;;5093231;28;20532;-77
2023/08/04 03:19:24;;;;;;;13.98;6.60;;;15.70;99.90;;;;;;5093004;28;20178;-77
2023/08/04 03:21:49;;;;;;;15.87;7.00;;;15.70;99.90;;;;;;5092784;28;20175;-77
2023/08/04 03:24:15;;;;;;;14.10;6.70;;;15.80;99.90;;;;;;5092789;28;20209;-77
2023/08/04 03:26:40;;;;;;;9.00;6.70;;;15.80;99.90;;;;;;5093085;28;20179;-77
2023/08/04 03:29:06;;;;;;;13.93;6.93;;;15.80;99.90;;;;;;5091742;28;20711;-76
2023/08/04 03:31:32;;;;;;;14.67;6.87;;;15.70;99.90;;;;;;5093376;28;20266;-76
2023/08/04 03:33:57;;;;;;;12.87;6.50;;;15.60;99.90;;;;;;5092864;28;20623;-77
2023/08/04 03:36:23;;;;;;;10.13;6.30;;;15.40;99.90;;;;;;5091410;28;20217;-76
2023/08/04 03:38:48;;;;;;;12.00;6.83;;;15.40;99.90;;;;;;5092405;28;20521;-77
2023/08/04 03:41:14;;;;;;;12.73;6.70;;;15.40;99.90;;;;;;5092369;28;20220;-77
2023/08/04 03:43:40;;;;;;;11.27;6.60;;;15.50;99.90;;;;;;5092921;28;20246;-77
2023/08/04 03:46:05;;;;;;;10.93;6.97;;;15.40;99.90;;;;;;5092695;28;20172;-77
2023/08/04 03:48:31;;;;;;;12.53;7.10;;;15.40;99.90;;;;;;5091941;28;20191;-78
2023/08/04 03:50:56;;;;;;;14.80;7.13;;;15.50;99.90;;;;;;5092498;28;20192;-76
2023/08/04 03:53:22;;;;;;;13.93;7.47;;;15.60;99.90;;;;;;5092928;28;20172;-77
2023/08/04 03:55:47;;;;;;;15.87;7.53;;;15.60;99.90;;;;;;5092263;28;20521;-77
2023/08/04 03:58:13;;;;;;;16.63;7.47;;;15.70;99.90;;;;;;5091395;28;20654;-77
2023/08/04 04:00:39;;;;;;;16.57;7.77;;;15.70;99.90;;;;;;5092134;28;20243;-77
2023/08/04 04:03:05;;;;;;;13.93;7.37;;;15.60;99.90;;;;;;5091891;28;20622;-77
2023/08/04 04:05:30;;;;;;;15.00;7.50;;;15.70;99.90;;;;;;5092321;28;20172;-77
2023/08/04 04:07:56;;;;;;;13.43;8.03;;;15.80;99.90;;;;;;5092363;28;20521;-76
2023/08/04 04:10:21;;;;;;;16.87;7.10;;;15.80;99.90;;;;;;5092346;28;20176;-77
2023/08/04 04:12:47;;;;;;;12.57;7.33;;;15.80;99.90;;;;;;5092448;28;20168;-77
2023/08/04 04:15:13;;;;;;;10.33;7.23;;;15.80;99.90;;;;;;5091261;28;20172;-76
2023/08/04 04:17:38;;;;;;;15.07;7.67;;;15.90;99.90;;;;;;5092503;28;20530;-77
2023/08/04 04:20:05;;;;;;;15.17;7.87;;;15.90;99.90;;;;;;5094805;28;20243;-78
2023/08/04 04:22:30;;;;;;;14.60;7.60;;;15.80;99.90;;;;;;5095660;28;20207;-77
2023/08/04 04:24:56;;;;;;;10.93;7.57;;;15.80;99.90;;;;;;5096011;28;20362;-76
2023/08/04 04:27:22;;;;;;;12.73;8.07;;;15.80;99.90;;;;;;5096367;28;20172;-76
2023/08/04 04:29:47;;;;;;;13.10;7.13;;;15.80;99.90;;;;;;5096078;28;20211;-77
2023/08/04 04:32:13;;;;;;;13.33;6.93;;;15.80;99.90;;;;;;5095597;28;20168;-78
2023/08/04 04:34:39;;;;;;;13.37;7.07;;;15.80;99.90;;;;;;5095649;28;20172;-78
2023/08/04 04:37:05;;;;;;;11.65;6.78;;;15.70;99.90;;;;;;5094961;28;20174;-77
2023/08/04 04:39:31;;;;;;;16.55;7.95;;;15.80;99.90;;;;;;5095701;28;20167;-76
2023/08/04 04:41:57;;;;;;;11.07;7.63;;;15.80;99.90;;;;;;5095147;28;20216;-77
2023/08/04 04:44:22;;;;;;;15.10;8.10;;;15.80;99.90;;;;;;5094920;28;20560;-77
2023/08/04 04:46:48;;;;;;;10.70;7.13;;;15.80;99.90;;;;;;5095103;28;20192;-77
2023/08/04 04:49:16;;;;;;;14.30;7.90;;;15.80;99.90;;;;;;5095394;28;20638;-78
2023/08/04 04:51:42;;;;;;;15.00;7.70;;;15.80;99.90;;;;;;5094989;28;20172;-77
2023/08/04 04:54:07;;;;;;;12.07;7.53;;;15.80;99.90;;;;;;5094775;28;20168;-77
2023/08/04 04:56:33;;;;;;;11.87;6.97;;;15.80;99.90;;;;;;5095296;28;20674;-77
2023/08/04 04:58:59;;;;;;;14.57;8.03;;;15.80;99.90;;;;;;5095468;28;20250;-77
2023/08/04 05:01:24;;;;;;;9.83;7.20;;;15.80;99.90;;;;;;5095416;28;20166;-77
2023/08/04 05:03:50;;;;;;;9.20;6.43;;;15.90;99.90;;;;;;5095033;28;20299;-78
2023/08/04 05:06:15;;;;;;;13.52;7.22;;;15.90;99.90;;;;;;5093732;28;20638;-76
2023/08/04 05:08:41;;;;;;;15.80;7.43;;;16.00;99.90;;;;;;5094730;28;20649;-77
2023/08/04 05:11:06;;;;;;;13.75;7.95;;;16.20;99.90;;;;;;5094835;28;20230;-77
2023/08/04 05:13:32;;;;;;;11.68;7.40;;;16.30;99.90;;;;;;5094597;28;20248;-77
2023/08/04 05:15:58;;;;;;;11.75;6.55;;;16.40;99.90;;;;;;5094752;28;20506;-77
2023/08/04 05:18:24;;;;;;;13.45;6.50;;;16.70;99.90;;;;;;5094296;28;20207;-77
2023/08/04 05:20:49;;;;;;;7.65;6.53;;;16.80;99.90;;;;;;5094868;28;20279;-76
2023/08/04 05:23:15;;;;;;;10.95;6.45;;;17.00;99.90;;;;;;5094273;28;20663;-76
2023/08/04 05:25:41;;;;;;;11.15;7.05;;;17.30;99.90;;;;;;5094567;28;20260;-76
2023/08/04 05:28:24;;;;;;;13.35;6.35;;;17.40;99.90;;;;;;5094308;28;20219;-77
2023/08/04 05:30:57;;;;;;;9.38;6.05;;;17.50;99.90;;;;;;5092796;28;20211;-76
2023/08/04 05:33:25;;;;;;;8.15;5.80;;;17.50;99.90;;;;;;5092575;28;20178;-76
2023/08/04 05:35:50;;;;;;;9.73;6.40;;;17.40;99.90;;;;;;5094011;28;20160;-76
2023/08/04 05:38:16;;;;;;;13.90;7.47;;;17.30;99.90;;;;;;5094800;28;20168;-76
2023/08/04 05:40:44;;;;;;;10.50;6.38;;;17.30;99.90;;;;;;5093702;28;20242;-76
2023/08/04 05:43:10;;;;;;;13.45;6.95;;;17.30;99.90;;;;;;5093825;28;20207;-77
2023/08/04 05:45:37;;;;;;;12.90;7.85;;;17.40;99.90;;;;;;5094294;28;20187;-77
2023/08/04 05:48:04;;;;;;;11.13;6.47;;;17.60;99.90;;;;;;5093944;28;20175;-77
2023/08/04 05:50:29;;;;;;;10.45;7.28;;;17.70;99.90;;;;;;5094301;28;20256;-77
2023/08/04 05:52:56;;;;;;;10.23;6.63;;;17.90;99.90;;;;;;5094277;28;20195;-77
2023/08/04 05:55:22;;;;;;;9.80;6.25;;;18.10;99.90;;;;;;5093665;28;20199;-78
2023/08/04 05:57:48;;;;;;;13.48;6.68;;;18.20;99.90;;;;;;5092430;28;20172;-78
2023/08/04 06:00:14;;;;;;;9.20;6.50;;;18.30;99.90;;;;;;5094168;28;20164;-77
2023/08/04 06:02:41;;;;;;;8.13;6.38;;;18.50;99.90;;;;;;5093337;28;20609;-78
2023/08/04 06:05:07;;;;;;;12.05;7.40;;;18.60;99.90;;;;;;5093657;28;20248;-78
2023/08/04 06:07:33;;;;;;;13.40;7.20;;;18.70;99.90;;;;;;5094007;28;20172;-78
2023/08/04 06:09:58;;;;;;;8.90;6.85;;;18.80;99.90;;;;;;5093896;28;20243;-78
2023/08/04 06:12:24;;;;;;;10.35;6.65;;;18.80;99.90;;;;;;5093413;28;20209;-77
2023/08/04 06:14:50;;;;;;;10.52;7.03;;;18.90;99.90;;;;;;5093793;28;20192;-77
2023/08/04 06:17:15;;;;;;;9.23;6.55;;;19.10;99.90;;;;;;5093015;28;20164;-77
2023/08/04 06:19:43;;;;;;;11.60;7.40;;;19.20;99.90;;;;;;5092395;28;20211;-78
2023/08/04 06:22:09;;;;;;;10.55;7.20;;;19.30;99.90;;;;;;5092186;28;20580;-77
2023/08/04 06:24:34;;;;;;;13.27;7.30;;;19.00;99.90;;;;;;5093459;28;20230;-77
2023/08/04 06:27:00;;;;;;;9.75;6.57;;;18.90;99.90;;;;;;5093530;28;20620;-78
2023/08/04 06:29:26;;;;;;;8.30;7.03;;;18.90;99.90;;;;;;5092410;28;20512;-77
2023/08/04 06:31:51;;;;;;;11.57;6.72;;;19.00;99.90;;;;;;5093100;28;20159;-78
2023/08/04 06:34:17;;;;;;;11.43;7.53;;;19.20;99.90;;;;;;5093356;28;20767;-78
2023/08/04 06:36:47;;;;;;;10.77;7.30;;;19.60;99.90;;;;;;5093566;28;20239;-77
2023/08/04 06:39:13;;;;;;;11.82;7.45;;;19.90;99.90;;;;;;5093292;28;20176;-79
2023/08/04 06:41:39;;;;;;;11.32;7.50;;;20.00;99.90;;;;;;5090819;28;20227;-78
2023/08/04 06:44:05;;;;;;;14.63;7.38;;;20.40;99.90;;;;;;5092774;28;20218;-78
2023/08/04 06:46:31;;;;;;;12.65;6.38;;;20.70;99.90;;;;;;5092765;28;20280;-78
2023/08/04 06:48:56;;;;;;;9.98;6.72;;;21.00;99.90;;;;;;5092781;28;20164;-77
2023/08/04 06:51:22;;;;;;;8.48;6.68;;;21.10;99.90;;;;;;5091887;28;20213;-78
2023/08/04 06:53:48;;;;;;;10.75;6.72;;;21.40;99.90;;;;;;5093112;28;20631;-78
2023/08/04 06:56:14;;;;;;;14.25;6.93;;;21.30;99.90;;;;;;5093039;28;20237;-77
2023/08/04 06:58:39;;;;;;;14.20;7.00;;;21.20;99.90;;;;;;5092786;28;20176;-77
2023/08/04 07:01:05;;;;;;;9.43;6.80;;;21.00;99.90;;;;;;5092435;28;20171;-78
2023/08/04 07:03:30;;;;;;;10.20;6.05;;;20.80;99.90;;;;;;5074461;28;20211;-78
2023/08/04 07:05:56;;;;;;;10.25;6.10;;;20.80;99.90;;;;;;5092410;28;20175;-77
2023/08/04 07:08:22;;;;;;;9.13;5.68;;;21.00;99.90;;;;;;5092412;28;20168;-76
2023/08/04 07:10:47;;;;;;;8.70;5.95;;;21.00;99.90;;;;;;5091494;28;20168;-76
2023/08/04 07:13:13;;;;;;;5.70;5.10;;;21.20;99.90;;;;;;5092851;28;20242;-77
2023/08/04 07:15:38;;;;;;;7.40;4.10;;;21.70;99.90;;;;;;5092143;28;20302;-77
2023/08/04 07:18:04;;;;;;;6.35;4.03;;;21.90;99.90;;;;;;5092297;28;20251;-77
2023/08/04 07:20:31;;;;;;;3.50;3.20;;;21.80;99.90;;;;;;5092475;28;20167;-76
2023/08/04 07:22:57;;;;;;;7.80;3.45;;;21.80;99.90;;;;;;5092762;28;20218;-77
2023/08/04 07:25:23;;;;;;;3.67;3.38;;;21.60;99.90;;;;;;5093304;28;20607;-77
2023/08/04 07:27:48;;;;;;;3.17;2.88;;;21.50;99.90;;;;;;5092642;28;20168;-77
2023/08/04 07:30:15;;;;;;;5.07;2.97;;;21.60;99.90;;;;;;5092144;28;20199;-78
2023/08/04 07:32:40;;;;;;;3.15;2.90;;;21.80;99.90;;;;;;5092363;28;20737;-78
2023/08/04 07:35:07;;;;;;;4.07;3.65;;;21.80;99.90;;;;;;5092532;28;20179;-77
2023/08/04 07:37:32;;;;;;;4.97;4.03;;;21.90;99.90;;;;;;5092895;28;20229;-78
2023/08/04 07:39:58;;;;;;;4.40;3.90;;;21.90;99.90;;;;;;5092586;28;20171;-79
2023/08/04 07:42:25;;;;;;;4.00;3.67;;;22.00;99.90;;;;;;5092131;28;20223;-79
2023/08/04 07:44:50;;;;;;;3.65;3.45;;;21.80;99.90;;;;;;5092228;28;20178;-78
2023/08/04 07:47:16;;;;;;;3.88;3.47;;;21.90;99.90;;;;;;5092616;28;20172;-78
2023/08/04 07:49:42;;;;;;;4.15;3.60;;;21.90;99.90;;;;;;5090927;28;20167;-78
2023/08/04 07:52:07;;;;;;;3.75;3.08;;;21.70;99.90;;;;;;5093651;28;20170;-78
2023/08/04 07:54:34;;;;;;;4.68;3.53;;;21.60;99.90;;;;;;5094767;28;20298;-78
2023/08/04 07:57:01;;;;;;;4.75;2.88;;;21.90;99.90;;;;;;5096375;28;20172;-78
2023/08/04 07:59:27;;;;;;;5.47;2.90;;;22.10;99.90;;;;;;5095878;28;20175;-79
2023/08/04 08:01:52;;;;;;;3.08;2.88;;;22.00;99.90;;;;;;5096385;28;20179;-78
2023/08/04 08:04:18;;;;;;;2.70;2.50;;;21.70;99.90;;;;;;5095874;28;20204;-78
2023/08/04 08:06:43;;;;;;;3.53;2.75;;;21.20;99.90;;;;;;5095643;28;20619;-78
2023/08/04 08:09:11;;;;;;;3.08;2.50;;;20.50;99.90;;;;;;5096460;28;20199;-78
2023/08/04 08:11:37;;;;;;;2.85;2.45;;;19.80;99.90;;;;;;5095766;28;20175;-78
2023/08/04 08:14:03;;;;;;;3.30;2.65;;;19.40;99.90;;;;;;5095702;28;20187;-78
2023/08/04 08:16:28;;;;;;;2.63;2.40;;;19.30;99.90;;;;;;5096067;28;20214;-76
2023/08/04 08:18:54;;;;;;;3.03;2.40;;;19.40;99.90;;;;;;5095657;28;20176;-77
2023/08/04 08:21:20;;;;;;;4.35;2.55;;;19.60;99.90;;;;;;5077543;28;20213;-77
2023/08/04 08:23:45;;;;;;;3.00;2.70;;;19.60;99.90;;;;;;5095922;28;20678;-76
2023/08/04 08:26:11;;;;;;;2.55;2.35;;;19.70;99.90;;;;;;5095939;28;20164;-77
2023/08/04 08:28:36;;;;;;;3.40;2.92;;;19.90;99.90;;;;;;5095293;28;20176;-77
2023/08/04 08:31:02;;;;;;;3.20;2.50;;;20.00;99.90;;;;;;5095759;28;20168;-78
2023/08/04 08:33:28;;;;;;;4.05;2.80;;;20.20;99.90;;;;;;5095462;28;20635;-78
2023/08/04 08:35:57;;;;;;;3.00;2.70;;;20.70;99.90;;;;;;5095707;28;20168;-79
2023/08/04 08:38:23;;;;;;;2.60;2.40;;;21.50;99.90;;;;;;5095784;28;20172;-79
2023/08/04 08:40:48;;;;;;;3.10;2.40;;;22.40;99.90;;;;;;5095174;28;20242;-78
2023/08/04 08:43:15;;;;;;;2.75;2.22;;;23.40;99.90;;;;;;5095166;28;20678;-79
2023/08/04 08:45:44;;;;;;;2.50;2.30;;;24.00;99.90;;;;;;5095647;28;20255;-78
2023/08/04 08:48:10;;;;;;;3.80;2.60;;;23.80;99.90;;;;;;5095520;28;20175;-79
2023/08/04 08:50:39;;;;;;;4.20;2.70;;;23.40;99.90;;;;;;5095151;28;20176;-78
2023/08/04 08:53:16;;;;;;;2.40;2.30;;;23.30;99.90;;;;;;5095157;28;20164;-78
2023/08/04 08:55:44;;;;;;;3.45;2.80;;;23.10;99.90;;;;;;5094453;28;20194;-78
2023/08/04 08:58:11;;;;;;;4.20;3.00;;;22.90;99.90;;;;;;5094545;28;20164;-78
2023/08/04 09:00:36;;;;;;;2.83;2.60;;;22.50;99.90;;;;;;5095220;28;20183;-79
2023/08/04 09:03:05;;;;;;;3.03;2.83;;;22.70;99.90;;;;;;5093280;28;20208;-78
2023/08/04 09:05:32;;;;;;;3.38;2.33;;;22.90;99.90;;;;;;5094347;28;20251;-79
2023/08/04 09:07:58;;;;;;;4.22;2.67;;;23.30;99.90;;;;;;5094441;28;20198;-81
2023/08/04 09:10:23;;;;;;;2.80;2.58;;;24.20;99.90;;;;;;5074434;28;20255;-78
2023/08/04 09:12:51;;;;;;;2.63;2.40;;;25.40;1.00;;;;;;5087039;28;20232;-79
2023/08/04 09:15:17;;;;;;;2.83;2.50;;;26.10;1.00;;;;;;5094496;28;20623;-84
2023/08/04 09:17:44;;;;;;;2.50;2.03;;;26.80;1.00;;;;;;5084943;28;20191;-82
2023/08/04 09:20:26;;;;;;;2.35;2.15;;;27.50;1.00;;;;;;5095200;28;20171;-80
2023/08/04 09:22:53;;;;;;;3.20;1.90;;;28.40;1.00;;;;;;5095301;28;20191;-81
2023/08/04 09:25:18;;;;;;;2.60;2.05;;;28.40;1.00;;;;;;5113789;28;20202;-81
2023/08/04 09:27:49;;;;;;;3.28;2.00;;;29.10;1.00;;;;;;5113285;28;20206;-76
2023/08/04 09:30:15;;;;;;;2.53;2.20;;;29.60;99.90;;;;;;5115194;28;20155;-79
2023/08/04 09:32:45;;;;;;;1.83;1.70;;;30.00;1.00;;;;;;5113769;28;20630;-78
2023/08/04 09:35:11;;;;;;;2.15;1.75;;;30.10;99.90;;;;;;5113986;28;20167;-79
2023/08/04 09:37:37;;;;;;;2.00;1.90;;;30.40;22.60;;;;;;5114664;28;20155;-78
2023/08/04 09:40:11;;;;;;;3.65;1.90;;;30.80;85.50;;;;;;5114503;28;20627;-80
2023/08/04 09:42:37;;;;;;;2.30;1.77;;;30.50;99.90;;;;;;5114857;28;20186;-83
2023/08/04 09:45:02;;;;;;;3.85;1.98;;;30.00;1.00;;;;;;5115148;28;20316;-78
2023/08/04 09:47:28;;;;;;;2.63;1.98;;;29.80;1.00;;;;;;5094295;28;20595;-79
2023/08/04 09:49:54;;;;;;;2.55;2.00;;;29.30;99.90;;;;;;5093823;28;20171;-78
2023/08/04 09:52:27;;;;;;;2.72;1.92;;;28.60;1.00;;;;;;5092585;28;20689;-77
2023/08/04 09:54:55;;;;;;;2.17;1.95;;;28.30;99.90;;;;;;5093406;28;20203;-78
2023/08/04 09:57:22;;;;;;;2.03;1.85;;;27.90;1.00;;;;;;5093917;28;20623;-82
2023/08/04 09:59:49;;;;;;;2.33;1.77;;;27.70;99.90;;;;;;5093649;28;20176;-80
2023/08/04 10:02:17;;;;;;;1.85;1.70;;;28.00;99.90;;;;;;5093447;28;20243;-78
2023/08/04 10:04:49;;;;;;;3.60;2.10;;;28.60;1.00;;;;;;5092543;28;20299;-77
2023/08/04 10:07:16;;;;;;;1.60;1.50;;;28.10;1.00;;;;;;5093540;28;20168;-80
2023/08/04 10:09:43;;;;;;;1.63;1.52;;;27.60;99.90;;;;;;5089064;28;20175;-78
2023/08/04 10:12:10;;;;;;;2.42;1.80;;;28.40;1.00;;;;;;5077277;28;20173;-80
2023/08/04 10:14:36;;;;;;;2.92;2.20;;;29.30;14.90;;;;;;5076093;28;20222;-79
2023/08/04 10:17:03;;;;;;;2.50;1.50;;;28.50;81.80;;;;;;5078172;28;20176;-80
2023/08/04 10:19:29;;;;;;;1.60;1.40;;;28.10;1.00;;;;;;5093092;28;20259;-78
2023/08/04 10:22:07;;;;;;;1.73;1.55;;;27.30;1.00;;;;;;5093315;28;20191;-81
2023/08/04 10:24:37;;;;;;;3.33;1.40;;;27.30;1.00;;;;;;5092879;28;20207;-77
2023/08/04 10:27:18;;;;;;;2.05;1.60;;;27.70;99.90;;;;;;5090252;28;20172;-77
2023/08/04 10:29:43;;;;;;;3.00;2.15;;;27.90;1.00;;;;;;5093285;28;20176;-80
2023/08/04 10:32:09;;;;;;;1.98;1.73;;;27.60;99.90;;;;;;5093238;28;20704;-82
2023/08/04 10:34:42;;;;;;;3.45;2.00;;;27.30;1.00;;;;;;5095522;28;20223;-81
2023/08/04 10:37:16;;;;;;;2.17;1.90;;;27.30;1.00;;;;;;5086147;28;20176;-77
2023/08/04 10:39:55;;;;;;;1.80;1.70;;;27.30;1.00;;;;;;5072923;28;20156;-76
2023/08/04 10:42:26;;;;;;;3.20;2.08;;;27.30;1.00;;;;;;5072386;28;20235;-77
2023/08/04 10:45:05;;;;;;;4.18;2.00;;;27.00;99.90;;;;;;5073019;28;20240;-74
2023/08/04 10:47:45;;;;;;;2.70;1.40;;;27.20;99.90;;;;;;5072889;28;20277;-77
2023/08/04 10:50:11;;;;;;;1.45;1.35;;;27.10;1.00;;;;;;5077274;28;20187;-79
2023/08/04 10:52:38;;;;;;;2.13;1.92;;;26.60;99.90;;;;;;5092741;28;20168;-79
2023/08/04 10:55:06;;;;;;;2.53;1.38;;;27.20;99.90;;;;;;5092378;28;20222;-78
2023/08/04 10:57:33;;;;;;;1.73;1.58;;;27.20;50.40;;;;;;5092468;28;20255;-80
2023/08/04 11:00:00;;;;;;;2.20;1.48;;;27.40;1.00;;;;;;5094659;28;20172;-80
2023/08/04 11:02:26;;;;;;;1.50;1.38;;;28.20;37.00;;;;;;5091509;28;20244;-83
2023/08/04 11:04:53;;;;;;;1.30;1.20;;;27.90;1.00;;;;;;5092635;28;20229;-81
2023/08/04 11:07:21;;;;;;;1.38;1.27;;;27.80;99.90;;;;;;5093841;28;20168;-79
2023/08/04 11:09:47;;;;;;;2.67;1.45;;;27.70;1.00;;;;;;5092587;28;20559;-81
2023/08/04 11:12:14;;;;;;;2.33;1.48;;;27.40;1.00;;;;;;5091247;28;20210;-79
2023/08/04 11:14:41;;;;;;;1.45;1.35;;;27.40;99.90;;;;;;5092558;28;20172;-84
2023/08/04 11:17:20;;;;;;;1.50;1.40;;;27.60;1.00;;;;;;5092182;28;20570;-82
2023/08/04 11:19:49;;;;;;;2.78;1.58;;;27.40;1.00;;;;;;5091521;28;20171;-79
2023/08/04 11:22:20;;;;;;;2.17;1.52;;;27.20;82.10;;;;;;5097394;28;20183;-78
2023/08/04 11:24:46;;;;;;;2.53;1.50;;;27.40;1.00;;;;;;5113486;28;20340;-81
2023/08/04 11:27:13;;;;;;;5.28;1.50;;;27.10;1.00;;;;;;5114631;28;20647;-80
2023/08/04 11:29:40;;;;;;;2.13;1.33;;;26.60;1.00;;;;;;5117800;28;20167;-81
2023/08/04 11:32:20;;;;;;;2.60;1.42;;;26.20;1.00;;;;;;5117172;28;20175;-81
2023/08/04 11:34:46;;;;;;;2.95;1.70;;;26.10;1.00;;;;;;5116203;28;20167;-82
2023/08/04 11:37:12;;;;;;;3.33;1.75;;;26.20;1.00;;;;;;5117028;28;20170;-82
2023/08/04 11:39:40;;;;;;;2.03;1.70;;;26.50;99.90;;;;;;5117348;28;20171;-82
2023/08/04 11:42:13;;;;;;;1.80;1.30;;;27.30;99.90;;;;;;5116881;27;20275;-83
2023/08/04 11:44:45;;;;;;;2.97;1.70;;;27.20;1.00;;;;;;5117019;27;20657;-82
2023/08/04 11:47:13;;;;;;;2.85;1.40;;;27.40;1.00;;;;;;5115957;28;20285;-82
2023/08/04 11:49:40;;;;;;;1.98;1.50;;;27.80;99.90;;;;;;5116580;27;20171;-82
2023/08/04 11:52:09;;;;;;;2.45;1.58;;;27.40;50.80;;;;;;5116619;28;20242;-80
2023/08/04 11:54:35;;;;;;;1.15;1.08;;;27.10;99.90;;;;;;5092922;28;20203;-81
2023/08/04 11:57:01;;;;;;;2.42;2.13;;;27.20;1.00;;;;;;5076545;28;20673;-81
2023/08/04 11:59:26;;;;;;;2.90;1.90;;;27.10;99.90;;;;;;5075483;28;20168;-81
2023/08/04 12:02:08;;;;;;;2.30;1.75;;;26.60;1.00;;;;;;5076133;28;20242;-82
2023/08/04 12:04:34;;;;;;;3.30;1.23;;;26.20;1.00;;;;;;5075579;28;20261;-80
2023/08/04 12:07:05;;;;;;;1.30;1.20;;;25.70;99.90;;;;;;5075897;28;20632;-84
2023/08/04 12:09:31;;;;;;;2.65;1.40;;;25.60;1.00;;;;;;5076139;28;20239;-83
2023/08/04 12:11:58;;;;;;;3.03;1.80;;;25.40;60.30;;;;;;5076318;28;20168;-85
2023/08/04 12:14:24;;;;;;;4.00;1.60;;;25.50;99.90;;;;;;5090478;28;20179;-80
2023/08/04 12:16:56;;;;;;;1.40;1.10;;;25.80;99.90;;;;;;5095635;28;20168;-80
2023/08/04 12:19:27;;;;;;;2.13;1.20;;;25.60;1.00;;;;;;5095907;28;20212;-81
2023/08/04 12:21:58;;;;;;;2.55;1.20;;;25.10;43.40;;;;;;5096710;28;20168;-84
2023/08/04 12:24:24;;;;;;;4.63;1.48;;;24.70;99.90;;;;;;5096352;28;20203;-79
2023/08/04 12:26:50;;;;;;;1.00;0.90;;;24.50;99.90;;;;;;5094582;28;20164;-78
2023/08/04 12:29:16;;;;;;;1.40;1.30;;;24.30;99.90;;;;;;5094516;28;20172;-78
2023/08/04 12:31:42;;;;;;;1.13;1.05;;;24.10;99.90;;;;;;5095710;28;20168;-78
2023/08/04 12:34:09;;;;;;;1.55;1.35;;;24.00;1.00;;;;;;5095023;28;20274;-77
2023/08/04 12:36:34;;;;;;;1.90;1.20;;;24.10;1.00;;;;;;5094193;28;20222;-77
2023/08/04 12:39:03;;;;;;;1.30;1.20;;;24.20;1.00;;;;;;5093371;28;20554;-77
2023/08/04 12:41:29;;;;;;;1.90;1.50;;;24.10;1.00;;;;;;5094838;28;20298;-78